sensor_id;sensor_type;location;lat;lon;timestamp;P1;durP1;ratioP1;P2;durP2;ratioP2
2866;SDS011;1441;48.886;8.728;2023-12-20T00:00:13;0.77;;;0.50;;
2866;SDS011;1441;48.886;8.728;2023-12-20T00:02:39;2.37;;;0.70;;
2866;SDS011;1441;48.886;8.728;2023-12-20T00:05:05;0.57;;;0.40;;
2866;SDS011;1441;48.886;8.728;2023-12-20T00:07:31;2.53;;;0.60;;
2866;SDS011;1441;48.886;8.728;2023-12-20T00:09:56;0.80;;;0.50;;
2866;SDS011;1441;48.886;8.728;2023-12-20T00:12:22;0.60;;;0.60;;
2866;SDS011;1441;48.886;8.728;2023-12-20T00:14:47;0.77;;;0.77;;
2866;SDS011;1441;48.886;8.728;2023-12-20T00:17:13;1.37;;;0.50;;
2866;SDS011;1441;48.886;8.728;2023-12-20T00:19:38;2.13;;;0.60;;
2866;SDS011;1441;48.886;8.728;2023-12-20T00:22:05;0.93;;;0.60;;
2866;SDS011;1441;48.886;8.728;2023-12-20T00:24:30;0.60;;;0.60;;
2866;SDS011;1441;48.886;8.728;2023-12-20T00:26:56;0.60;;;0.60;;
2866;SDS011;1441;48.886;8.728;2023-12-20T00:29:21;1.50;;;0.50;;
2866;SDS011;1441;48.886;8.728;2023-12-20T00:31:47;0.50;;;0.50;;
2866;SDS011;1441;48.886;8.728;2023-12-20T00:34:12;0.93;;;0.60;;
2866;SDS011;1441;48.886;8.728;2023-12-20T00:36:38;0.63;;;0.50;;
2866;SDS011;1441;48.886;8.728;2023-12-20T00:39:03;0.50;;;0.50;;
2866;SDS011;1441;48.886;8.728;2023-12-20T00:41:29;0.50;;;0.50;;
2866;SDS011;1441;48.886;8.728;2023-12-20T00:43:55;0.60;;;0.40;;
2866;SDS011;1441;48.886;8.728;2023-12-20T00:46:20;0.40;;;0.40;;
2866;SDS011;1441;48.886;8.728;2023-12-20T00:48:45;0.77;;;0.60;;
2866;SDS011;1441;48.886;8.728;2023-12-20T00:51:11;0.50;;;0.50;;
2866;SDS011;1441;48.886;8.728;2023-12-20T00:53:36;2.43;;;0.40;;
2866;SDS011;1441;48.886;8.728;2023-12-20T00:56:02;0.50;;;0.50;;
2866;SDS011;1441;48.886;8.728;2023-12-20T00:58:28;0.53;;;0.40;;
2866;SDS011;1441;48.886;8.728;2023-12-20T01:00:53;0.40;;;0.40;;
2866;SDS011;1441;48.886;8.728;2023-12-20T01:03:19;0.60;;;0.60;;
2866;SDS011;1441;48.886;8.728;2023-12-20T01:05:44;0.47;;;0.47;;
2866;SDS011;1441;48.886;8.728;2023-12-20T01:08:10;0.50;;;0.40;;
2866;SDS011;1441;48.886;8.728;2023-12-20T01:10:36;0.40;;;0.40;;
2866;SDS011;1441;48.886;8.728;2023-12-20T01:13:01;0.97;;;0.40;;
2866;SDS011;1441;48.886;8.728;2023-12-20T01:15:27;0.40;;;0.40;;
2866;SDS011;1441;48.886;8.728;2023-12-20T01:17:52;0.40;;;0.40;;
2866;SDS011;1441;48.886;8.728;2023-12-20T01:20:18;0.50;;;0.40;;
2866;SDS011;1441;48.886;8.728;2023-12-20T01:22:45;0.40;;;0.40;;
2866;SDS011;1441;48.886;8.728;2023-12-20T01:25:11;3.20;;;0.40;;
2866;SDS011;1441;48.886;8.728;2023-12-20T01:27:36;1.30;;;0.40;;
2866;SDS011;1441;48.886;8.728;2023-12-20T01:30:02;0.40;;;0.40;;
2866;SDS011;1441;48.886;8.728;2023-12-20T01:32:28;1.43;;;0.40;;
2866;SDS011;1441;48.886;8.728;2023-12-20T01:34:53;1.50;;;0.40;;
2866;SDS011;1441;48.886;8.728;2023-12-20T01:37:19;0.40;;;0.40;;
2866;SDS011;1441;48.886;8.728;2023-12-20T01:39:44;0.47;;;0.47;;
2866;SDS011;1441;48.886;8.728;2023-12-20T01:42:10;0.40;;;0.40;;
2866;SDS011;1441;48.886;8.728;2023-12-20T01:44:35;0.63;;;0.40;;
2866;SDS011;1441;48.886;8.728;2023-12-20T01:47:01;0.30;;;0.30;;
2866;SDS011;1441;48.886;8.728;2023-12-20T01:49:27;0.40;;;0.40;;
2866;SDS011;1441;48.886;8.728;2023-12-20T01:51:53;0.40;;;0.40;;
2866;SDS011;1441;48.886;8.728;2023-12-20T01:54:19;0.40;;;0.40;;
2866;SDS011;1441;48.886;8.728;2023-12-20T01:56:46;0.70;;;0.50;;
2866;SDS011;1441;48.886;8.728;2023-12-20T01:59:11;0.40;;;0.40;;
2866;SDS011;1441;48.886;8.728;2023-12-20T02:01:37;0.40;;;0.40;;
2866;SDS011;1441;48.886;8.728;2023-12-20T02:04:03;0.30;;;0.30;;
2866;SDS011;1441;48.886;8.728;2023-12-20T02:06:29;0.40;;;0.40;;
2866;SDS011;1441;48.886;8.728;2023-12-20T02:08:58;4.07;;;0.50;;
2866;SDS011;1441;48.886;8.728;2023-12-20T02:11:24;0.50;;;0.50;;
2866;SDS011;1441;48.886;8.728;2023-12-20T02:13:51;0.50;;;0.50;;
2866;SDS011;1441;48.886;8.728;2023-12-20T02:16:16;1.37;;;0.40;;
2866;SDS011;1441;48.886;8.728;2023-12-20T02:18:42;0.40;;;0.40;;
2866;SDS011;1441;48.886;8.728;2023-12-20T02:21:09;0.40;;;0.40;;
2866;SDS011;1441;48.886;8.728;2023-12-20T02:23:35;0.47;;;0.47;;
2866;SDS011;1441;48.886;8.728;2023-12-20T02:26:00;0.40;;;0.40;;
2866;SDS011;1441;48.886;8.728;2023-12-20T02:28:26;0.50;;;0.50;;
2866;SDS011;1441;48.886;8.728;2023-12-20T02:30:52;0.40;;;0.40;;
2866;SDS011;1441;48.886;8.728;2023-12-20T02:33:17;0.40;;;0.40;;
2866;SDS011;1441;48.886;8.728;2023-12-20T02:35:43;0.50;;;0.40;;
2866;SDS011;1441;48.886;8.728;2023-12-20T02:38:08;0.40;;;0.40;;
2866;SDS011;1441;48.886;8.728;2023-12-20T02:40:34;0.50;;;0.50;;
2866;SDS011;1441;48.886;8.728;2023-12-20T02:42:59;1.60;;;0.30;;
2866;SDS011;1441;48.886;8.728;2023-12-20T02:45:26;0.53;;;0.40;;
2866;SDS011;1441;48.886;8.728;2023-12-20T02:47:52;1.17;;;0.37;;
2866;SDS011;1441;48.886;8.728;2023-12-20T02:50:17;0.50;;;0.50;;
2866;SDS011;1441;48.886;8.728;2023-12-20T02:52:44;0.40;;;0.40;;
2866;SDS011;1441;48.886;8.728;2023-12-20T02:55:10;0.60;;;0.60;;
2866;SDS011;1441;48.886;8.728;2023-12-20T02:57:36;0.40;;;0.33;;
2866;SDS011;1441;48.886;8.728;2023-12-20T03:00:06;1.70;;;0.40;;
2866;SDS011;1441;48.886;8.728;2023-12-20T03:02:34;0.40;;;0.40;;
2866;SDS011;1441;48.886;8.728;2023-12-20T03:04:59;0.50;;;0.50;;
2866;SDS011;1441;48.886;8.728;2023-12-20T03:07:25;0.30;;;0.30;;
2866;SDS011;1441;48.886;8.728;2023-12-20T03:09:51;0.50;;;0.50;;
2866;SDS011;1441;48.886;8.728;2023-12-20T03:12:16;0.50;;;0.40;;
2866;SDS011;1441;48.886;8.728;2023-12-20T03:14:43;0.40;;;0.40;;
2866;SDS011;1441;48.886;8.728;2023-12-20T03:17:09;0.53;;;0.53;;
2866;SDS011;1441;48.886;8.728;2023-12-20T03:19:34;0.30;;;0.30;;
2866;SDS011;1441;48.886;8.728;2023-12-20T03:22:00;0.50;;;0.50;;
2866;SDS011;1441;48.886;8.728;2023-12-20T03:24:26;0.87;;;0.50;;
2866;SDS011;1441;48.886;8.728;2023-12-20T03:26:51;0.40;;;0.40;;
2866;SDS011;1441;48.886;8.728;2023-12-20T03:29:17;0.40;;;0.40;;
2866;SDS011;1441;48.886;8.728;2023-12-20T03:31:42;0.40;;;0.40;;
2866;SDS011;1441;48.886;8.728;2023-12-20T03:34:08;0.40;;;0.40;;
2866;SDS011;1441;48.886;8.728;2023-12-20T03:36:33;0.37;;;0.37;;
2866;SDS011;1441;48.886;8.728;2023-12-20T03:38:59;0.33;;;0.33;;
2866;SDS011;1441;48.886;8.728;2023-12-20T03:41:24;0.50;;;0.50;;
2866;SDS011;1441;48.886;8.728;2023-12-20T03:43:50;1.17;;;0.40;;
2866;SDS011;1441;48.886;8.728;2023-12-20T03:46:16;0.43;;;0.43;;
2866;SDS011;1441;48.886;8.728;2023-12-20T03:48:41;0.50;;;0.50;;
2866;SDS011;1441;48.886;8.728;2023-12-20T03:51:07;0.40;;;0.40;;
2866;SDS011;1441;48.886;8.728;2023-12-20T03:53:32;0.40;;;0.40;;
2866;SDS011;1441;48.886;8.728;2023-12-20T03:55:58;0.40;;;0.40;;
2866;SDS011;1441;48.886;8.728;2023-12-20T03:58:24;0.93;;;0.93;;
2866;SDS011;1441;48.886;8.728;2023-12-20T04:00:49;0.40;;;0.40;;
2866;SDS011;1441;48.886;8.728;2023-12-20T04:03:15;0.37;;;0.37;;
2866;SDS011;1441;48.886;8.728;2023-12-20T04:05:41;0.30;;;0.30;;
2866;SDS011;1441;48.886;8.728;2023-12-20T04:08:07;0.40;;;0.40;;
2866;SDS011;1441;48.886;8.728;2023-12-20T04:10:33;0.50;;;0.50;;
2866;SDS011;1441;48.886;8.728;2023-12-20T04:12:58;0.47;;;0.47;;
2866;SDS011;1441;48.886;8.728;2023-12-20T04:15:24;0.30;;;0.30;;
2866;SDS011;1441;48.886;8.728;2023-12-20T04:17:49;0.57;;;0.40;;
2866;SDS011;1441;48.886;8.728;2023-12-20T04:20:15;0.40;;;0.40;;
2866;SDS011;1441;48.886;8.728;2023-12-20T04:22:40;0.40;;;0.40;;
2866;SDS011;1441;48.886;8.728;2023-12-20T04:25:07;1.33;;;0.40;;
2866;SDS011;1441;48.886;8.728;2023-12-20T04:27:33;0.70;;;0.47;;
2866;SDS011;1441;48.886;8.728;2023-12-20T04:29:58;0.40;;;0.40;;
2866;SDS011;1441;48.886;8.728;2023-12-20T04:32:24;1.27;;;0.40;;
2866;SDS011;1441;48.886;8.728;2023-12-20T04:34:50;0.40;;;0.40;;
2866;SDS011;1441;48.886;8.728;2023-12-20T04:37:15;0.40;;;0.40;;
2866;SDS011;1441;48.886;8.728;2023-12-20T04:39:41;0.40;;;0.40;;
2866;SDS011;1441;48.886;8.728;2023-12-20T04:42:06;3.60;;;0.40;;
2866;SDS011;1441;48.886;8.728;2023-12-20T04:44:32;0.53;;;0.37;;
2866;SDS011;1441;48.886;8.728;2023-12-20T04:46:57;0.43;;;0.43;;
2866;SDS011;1441;48.886;8.728;2023-12-20T04:49:23;0.43;;;0.43;;
2866;SDS011;1441;48.886;8.728;2023-12-20T04:51:49;0.50;;;0.50;;
2866;SDS011;1441;48.886;8.728;2023-12-20T04:54:14;0.57;;;0.50;;
2866;SDS011;1441;48.886;8.728;2023-12-20T04:56:40;0.70;;;0.70;;
2866;SDS011;1441;48.886;8.728;2023-12-20T04:59:06;0.60;;;0.60;;
2866;SDS011;1441;48.886;8.728;2023-12-20T05:01:32;0.50;;;0.50;;
2866;SDS011;1441;48.886;8.728;2023-12-20T05:03:57;2.00;;;0.80;;
2866;SDS011;1441;48.886;8.728;2023-12-20T05:06:23;1.50;;;0.87;;
2866;SDS011;1441;48.886;8.728;2023-12-20T05:08:49;0.73;;;0.73;;
2866;SDS011;1441;48.886;8.728;2023-12-20T05:11:15;1.20;;;1.20;;
2866;SDS011;1441;48.886;8.728;2023-12-20T05:13:41;1.20;;;1.20;;
2866;SDS011;1441;48.886;8.728;2023-12-20T05:16:07;1.10;;;1.10;;
2866;SDS011;1441;48.886;8.728;2023-12-20T05:18:34;1.43;;;0.80;;
2866;SDS011;1441;48.886;8.728;2023-12-20T05:20:59;1.90;;;0.90;;
2866;SDS011;1441;48.886;8.728;2023-12-20T05:23:25;2.03;;;0.90;;
2866;SDS011;1441;48.886;8.728;2023-12-20T05:25:50;1.07;;;1.07;;
2866;SDS011;1441;48.886;8.728;2023-12-20T05:28:16;1.17;;;1.07;;
2866;SDS011;1441;48.886;8.728;2023-12-20T05:30:42;1.27;;;1.27;;
2866;SDS011;1441;48.886;8.728;2023-12-20T05:33:08;1.63;;;1.53;;
2866;SDS011;1441;48.886;8.728;2023-12-20T05:35:34;1.50;;;1.40;;
2866;SDS011;1441;48.886;8.728;2023-12-20T05:37:59;1.37;;;1.30;;
2866;SDS011;1441;48.886;8.728;2023-12-20T05:40:25;1.43;;;1.33;;
2866;SDS011;1441;48.886;8.728;2023-12-20T05:42:51;0.93;;;0.93;;
2866;SDS011;1441;48.886;8.728;2023-12-20T05:45:16;4.30;;;1.20;;
2866;SDS011;1441;48.886;8.728;2023-12-20T05:47:42;2.40;;;1.20;;
2866;SDS011;1441;48.886;8.728;2023-12-20T05:50:07;1.70;;;1.00;;
2866;SDS011;1441;48.886;8.728;2023-12-20T05:52:34;1.23;;;1.13;;
2866;SDS011;1441;48.886;8.728;2023-12-20T05:54:59;1.20;;;1.20;;
2866;SDS011;1441;48.886;8.728;2023-12-20T05:57:26;1.07;;;1.07;;
2866;SDS011;1441;48.886;8.728;2023-12-20T05:59:52;1.10;;;1.10;;
2866;SDS011;1441;48.886;8.728;2023-12-20T06:02:17;1.37;;;1.27;;
2866;SDS011;1441;48.886;8.728;2023-12-20T06:04:43;1.33;;;1.23;;
2866;SDS011;1441;48.886;8.728;2023-12-20T06:07:11;1.20;;;1.20;;
2866;SDS011;1441;48.886;8.728;2023-12-20T06:09:37;1.70;;;1.60;;
2866;SDS011;1441;48.886;8.728;2023-12-20T06:12:02;1.27;;;1.20;;
2866;SDS011;1441;48.886;8.728;2023-12-20T06:14:28;1.10;;;1.10;;
2866;SDS011;1441;48.886;8.728;2023-12-20T06:16:55;1.10;;;1.10;;
2866;SDS011;1441;48.886;8.728;2023-12-20T06:19:21;1.43;;;1.33;;
2866;SDS011;1441;48.886;8.728;2023-12-20T06:21:47;1.00;;;1.00;;
2866;SDS011;1441;48.886;8.728;2023-12-20T06:24:12;1.40;;;1.20;;
2866;SDS011;1441;48.886;8.728;2023-12-20T06:26:38;1.30;;;1.30;;
2866;SDS011;1441;48.886;8.728;2023-12-20T06:29:03;1.60;;;1.50;;
2866;SDS011;1441;48.886;8.728;2023-12-20T06:31:29;1.90;;;1.80;;
2866;SDS011;1441;48.886;8.728;2023-12-20T06:33:55;2.30;;;1.90;;
2866;SDS011;1441;48.886;8.728;2023-12-20T06:36:23;1.80;;;1.70;;
2866;SDS011;1441;48.886;8.728;2023-12-20T06:38:49;2.13;;;2.03;;
2866;SDS011;1441;48.886;8.728;2023-12-20T06:41:15;2.30;;;1.70;;
2866;SDS011;1441;48.886;8.728;2023-12-20T06:43:41;2.03;;;1.93;;
2866;SDS011;1441;48.886;8.728;2023-12-20T06:46:07;2.00;;;1.90;;
2866;SDS011;1441;48.886;8.728;2023-12-20T06:48:32;2.43;;;2.23;;
2866;SDS011;1441;48.886;8.728;2023-12-20T06:50:59;2.10;;;2.00;;
2866;SDS011;1441;48.886;8.728;2023-12-20T06:53:25;2.50;;;2.10;;
2866;SDS011;1441;48.886;8.728;2023-12-20T06:55:51;2.20;;;2.10;;
2866;SDS011;1441;48.886;8.728;2023-12-20T06:58:16;2.10;;;2.00;;
2866;SDS011;1441;48.886;8.728;2023-12-20T07:00:42;2.00;;;1.90;;
2866;SDS011;1441;48.886;8.728;2023-12-20T07:03:08;1.83;;;1.70;;
2866;SDS011;1441;48.886;8.728;2023-12-20T07:05:34;2.17;;;1.97;;
2866;SDS011;1441;48.886;8.728;2023-12-20T07:08:00;1.77;;;1.67;;
2866;SDS011;1441;48.886;8.728;2023-12-20T07:10:25;1.87;;;1.77;;
2866;SDS011;1441;48.886;8.728;2023-12-20T07:12:51;3.17;;;2.13;;
2866;SDS011;1441;48.886;8.728;2023-12-20T07:15:17;3.30;;;1.90;;
2866;SDS011;1441;48.886;8.728;2023-12-20T07:17:43;2.10;;;2.00;;
2866;SDS011;1441;48.886;8.728;2023-12-20T07:20:09;2.33;;;2.13;;
2866;SDS011;1441;48.886;8.728;2023-12-20T07:22:36;4.30;;;2.13;;
2866;SDS011;1441;48.886;8.728;2023-12-20T07:25:01;2.07;;;1.97;;
2866;SDS011;1441;48.886;8.728;2023-12-20T07:27:27;4.40;;;2.37;;
2866;SDS011;1441;48.886;8.728;2023-12-20T07:29:52;3.10;;;2.90;;
2866;SDS011;1441;48.886;8.728;2023-12-20T07:32:18;2.43;;;2.23;;
2866;SDS011;1441;48.886;8.728;2023-12-20T07:34:44;2.93;;;2.73;;
2866;SDS011;1441;48.886;8.728;2023-12-20T07:37:10;2.60;;;2.00;;
2866;SDS011;1441;48.886;8.728;2023-12-20T07:39:37;3.10;;;2.30;;
2866;SDS011;1441;48.886;8.728;2023-12-20T07:42:02;3.30;;;2.50;;
2866;SDS011;1441;48.886;8.728;2023-12-20T07:44:28;2.10;;;2.00;;
2866;SDS011;1441;48.886;8.728;2023-12-20T07:46:54;2.60;;;1.90;;
2866;SDS011;1441;48.886;8.728;2023-12-20T07:49:19;2.97;;;2.77;;
2866;SDS011;1441;48.886;8.728;2023-12-20T07:51:45;2.53;;;2.33;;
2866;SDS011;1441;48.886;8.728;2023-12-20T07:54:10;3.70;;;2.33;;
2866;SDS011;1441;48.886;8.728;2023-12-20T07:56:36;2.40;;;2.20;;
2866;SDS011;1441;48.886;8.728;2023-12-20T07:59:01;3.40;;;2.13;;
2866;SDS011;1441;48.886;8.728;2023-12-20T08:01:27;2.03;;;1.93;;
2866;SDS011;1441;48.886;8.728;2023-12-20T08:03:52;2.57;;;2.47;;
2866;SDS011;1441;48.886;8.728;2023-12-20T08:06:18;2.50;;;2.30;;
2866;SDS011;1441;48.886;8.728;2023-12-20T08:08:43;2.87;;;2.73;;
2866;SDS011;1441;48.886;8.728;2023-12-20T08:11:10;3.40;;;3.10;;
2866;SDS011;1441;48.886;8.728;2023-12-20T08:13:35;5.30;;;2.53;;
2866;SDS011;1441;48.886;8.728;2023-12-20T08:16:01;4.17;;;3.40;;
2866;SDS011;1441;48.886;8.728;2023-12-20T08:18:28;2.77;;;2.57;;
2866;SDS011;1441;48.886;8.728;2023-12-20T08:20:53;2.50;;;2.40;;
2866;SDS011;1441;48.886;8.728;2023-12-20T08:23:19;2.33;;;2.23;;
2866;SDS011;1441;48.886;8.728;2023-12-20T08:25:48;3.40;;;2.47;;
2866;SDS011;1441;48.886;8.728;2023-12-20T08:28:14;2.60;;;2.40;;
2866;SDS011;1441;48.886;8.728;2023-12-20T08:30:40;2.87;;;2.67;;
2866;SDS011;1441;48.886;8.728;2023-12-20T08:33:06;3.37;;;3.07;;
2866;SDS011;1441;48.886;8.728;2023-12-20T08:35:36;5.10;;;2.40;;
2866;SDS011;1441;48.886;8.728;2023-12-20T08:38:01;2.70;;;2.50;;
2866;SDS011;1441;48.886;8.728;2023-12-20T08:40:29;2.23;;;1.93;;
2866;SDS011;1441;48.886;8.728;2023-12-20T08:42:54;3.03;;;1.90;;
2866;SDS011;1441;48.886;8.728;2023-12-20T08:45:20;2.73;;;1.80;;
2866;SDS011;1441;48.886;8.728;2023-12-20T08:47:45;6.93;;;1.70;;
2866;SDS011;1441;48.886;8.728;2023-12-20T08:50:11;1.70;;;1.57;;
2866;SDS011;1441;48.886;8.728;2023-12-20T08:52:37;2.10;;;1.43;;
2866;SDS011;1441;48.886;8.728;2023-12-20T08:55:02;5.87;;;1.50;;
2866;SDS011;1441;48.886;8.728;2023-12-20T08:57:28;1.77;;;1.20;;
2866;SDS011;1441;48.886;8.728;2023-12-20T08:59:53;1.47;;;1.07;;
2866;SDS011;1441;48.886;8.728;2023-12-20T09:02:19;3.70;;;1.20;;
2866;SDS011;1441;48.886;8.728;2023-12-20T09:04:44;2.47;;;2.30;;
2866;SDS011;1441;48.886;8.728;2023-12-20T09:07:26;1.73;;;1.10;;
2866;SDS011;1441;48.886;8.728;2023-12-20T09:09:52;3.03;;;2.00;;
2866;SDS011;1441;48.886;8.728;2023-12-20T09:12:18;1.47;;;1.03;;
2866;SDS011;1441;48.886;8.728;2023-12-20T09:14:45;2.93;;;1.37;;
2866;SDS011;1441;48.886;8.728;2023-12-20T09:17:11;5.27;;;1.10;;
2866;SDS011;1441;48.886;8.728;2023-12-20T09:19:37;1.43;;;1.30;;
2866;SDS011;1441;48.886;8.728;2023-12-20T09:22:03;3.67;;;1.60;;
2866;SDS011;1441;48.886;8.728;2023-12-20T09:24:30;2.00;;;1.10;;
2866;SDS011;1441;48.886;8.728;2023-12-20T09:26:55;3.33;;;1.33;;
2866;SDS011;1441;48.886;8.728;2023-12-20T09:29:21;6.53;;;1.30;;
2866;SDS011;1441;48.886;8.728;2023-12-20T09:31:46;3.13;;;1.10;;
2866;SDS011;1441;48.886;8.728;2023-12-20T09:34:14;3.20;;;0.93;;
2866;SDS011;1441;48.886;8.728;2023-12-20T09:36:40;4.40;;;0.93;;
2866;SDS011;1441;48.886;8.728;2023-12-20T09:39:11;4.73;;;0.93;;
2866;SDS011;1441;48.886;8.728;2023-12-20T09:41:42;2.00;;;0.97;;
2866;SDS011;1441;48.886;8.728;2023-12-20T09:44:11;5.43;;;0.80;;
2866;SDS011;1441;48.886;8.728;2023-12-20T09:46:39;2.53;;;1.03;;
2866;SDS011;1441;48.886;8.728;2023-12-20T09:49:09;3.53;;;1.20;;
2866;SDS011;1441;48.886;8.728;2023-12-20T09:51:36;6.40;;;1.17;;
2866;SDS011;1441;48.886;8.728;2023-12-20T09:54:04;3.90;;;1.47;;
2866;SDS011;1441;48.886;8.728;2023-12-20T09:56:30;4.27;;;1.40;;
2866;SDS011;1441;48.886;8.728;2023-12-20T09:58:56;5.30;;;1.30;;
2866;SDS011;1441;48.886;8.728;2023-12-20T10:01:22;2.90;;;1.30;;
2866;SDS011;1441;48.886;8.728;2023-12-20T10:03:48;5.03;;;1.37;;
2866;SDS011;1441;48.886;8.728;2023-12-20T10:06:19;4.87;;;1.53;;
2866;SDS011;1441;48.886;8.728;2023-12-20T10:08:44;2.20;;;1.17;;
2866;SDS011;1441;48.886;8.728;2023-12-20T10:11:10;2.27;;;1.60;;
2866;SDS011;1441;48.886;8.728;2023-12-20T10:13:39;6.77;;;1.40;;
2866;SDS011;1441;48.886;8.728;2023-12-20T10:16:06;1.93;;;1.33;;
2866;SDS011;1441;48.886;8.728;2023-12-20T10:18:32;5.10;;;1.53;;
2866;SDS011;1441;48.886;8.728;2023-12-20T10:20:58;11.10;;;1.87;;
2866;SDS011;1441;48.886;8.728;2023-12-20T10:23:25;3.07;;;1.73;;
2866;SDS011;1441;48.886;8.728;2023-12-20T10:26:00;6.27;;;1.13;;
2866;SDS011;1441;48.886;8.728;2023-12-20T10:28:25;9.67;;;1.63;;
2866;SDS011;1441;48.886;8.728;2023-12-20T10:30:54;4.33;;;1.47;;
2866;SDS011;1441;48.886;8.728;2023-12-20T10:33:26;2.93;;;1.57;;
2866;SDS011;1441;48.886;8.728;2023-12-20T10:35:53;2.13;;;1.30;;
2866;SDS011;1441;48.886;8.728;2023-12-20T10:38:20;4.30;;;1.33;;
2866;SDS011;1441;48.886;8.728;2023-12-20T10:40:46;1.90;;;1.50;;
2866;SDS011;1441;48.886;8.728;2023-12-20T10:43:12;6.70;;;2.07;;
2866;SDS011;1441;48.886;8.728;2023-12-20T10:45:38;5.50;;;1.30;;
2866;SDS011;1441;48.886;8.728;2023-12-20T10:48:04;6.60;;;2.63;;
2866;SDS011;1441;48.886;8.728;2023-12-20T10:50:30;5.37;;;1.57;;
2866;SDS011;1441;48.886;8.728;2023-12-20T10:52:57;4.23;;;1.40;;
2866;SDS011;1441;48.886;8.728;2023-12-20T10:55:23;7.43;;;1.63;;
2866;SDS011;1441;48.886;8.728;2023-12-20T10:58:06;5.30;;;1.43;;
2866;SDS011;1441;48.886;8.728;2023-12-20T11:00:35;2.90;;;1.50;;
2866;SDS011;1441;48.886;8.728;2023-12-20T11:03:08;5.17;;;1.80;;
2866;SDS011;1441;48.886;8.728;2023-12-20T11:05:37;5.83;;;1.73;;
2866;SDS011;1441;48.886;8.728;2023-12-20T11:08:12;3.33;;;1.00;;
2866;SDS011;1441;48.886;8.728;2023-12-20T11:13:27;6.20;;;1.80;;
2866;SDS011;1441;48.886;8.728;2023-12-20T11:16:17;3.33;;;1.60;;
2866;SDS011;1441;48.886;8.728;2023-12-20T11:18:44;4.73;;;1.67;;
2866;SDS011;1441;48.886;8.728;2023-12-20T11:21:10;5.77;;;1.70;;
2866;SDS011;1441;48.886;8.728;2023-12-20T11:23:36;4.17;;;1.60;;
2866;SDS011;1441;48.886;8.728;2023-12-20T11:26:02;3.03;;;1.40;;
2866;SDS011;1441;48.886;8.728;2023-12-20T11:28:28;4.60;;;1.60;;
2866;SDS011;1441;48.886;8.728;2023-12-20T11:30:57;7.13;;;1.80;;
2866;SDS011;1441;48.886;8.728;2023-12-20T11:33:25;3.70;;;1.83;;
2866;SDS011;1441;48.886;8.728;2023-12-20T11:35:57;5.00;;;1.23;;
2866;SDS011;1441;48.886;8.728;2023-12-20T11:38:25;4.67;;;1.40;;
2866;SDS011;1441;48.886;8.728;2023-12-20T11:40:50;7.50;;;1.87;;
2866;SDS011;1441;48.886;8.728;2023-12-20T11:46:06;9.93;;;1.50;;
2866;SDS011;1441;48.886;8.728;2023-12-20T11:48:38;4.57;;;1.30;;
2866;SDS011;1441;48.886;8.728;2023-12-20T11:51:11;7.20;;;0.90;;
2866;SDS011;1441;48.886;8.728;2023-12-20T11:53:38;4.27;;;1.53;;
2866;SDS011;1441;48.886;8.728;2023-12-20T11:56:05;6.93;;;1.37;;
2866;SDS011;1441;48.886;8.728;2023-12-20T11:58:32;1.97;;;1.50;;
2866;SDS011;1441;48.886;8.728;2023-12-20T12:00:58;7.10;;;1.27;;
2866;SDS011;1441;48.886;8.728;2023-12-20T12:03:24;4.17;;;1.30;;
2866;SDS011;1441;48.886;8.728;2023-12-20T12:05:49;1.73;;;1.30;;
2866;SDS011;1441;48.886;8.728;2023-12-20T12:08:15;9.03;;;1.53;;
2866;SDS011;1441;48.886;8.728;2023-12-20T12:10:42;4.40;;;1.10;;
2866;SDS011;1441;48.886;8.728;2023-12-20T12:13:08;10.07;;;1.20;;
2866;SDS011;1441;48.886;8.728;2023-12-20T12:15:34;8.60;;;1.87;;
2866;SDS011;1441;48.886;8.728;2023-12-20T12:18:01;2.00;;;1.20;;
2866;SDS011;1441;48.886;8.728;2023-12-20T12:20:26;6.83;;;1.47;;
2866;SDS011;1441;48.886;8.728;2023-12-20T12:22:58;2.30;;;1.00;;
2866;SDS011;1441;48.886;8.728;2023-12-20T12:25:25;2.50;;;1.03;;
2866;SDS011;1441;48.886;8.728;2023-12-20T12:27:52;3.60;;;1.20;;
2866;SDS011;1441;48.886;8.728;2023-12-20T12:30:17;7.00;;;1.30;;
2866;SDS011;1441;48.886;8.728;2023-12-20T12:32:46;3.57;;;0.97;;
2866;SDS011;1441;48.886;8.728;2023-12-20T12:35:12;2.87;;;1.17;;
2866;SDS011;1441;48.886;8.728;2023-12-20T12:37:39;7.43;;;1.67;;
2866;SDS011;1441;48.886;8.728;2023-12-20T12:40:15;5.47;;;1.20;;
2866;SDS011;1441;48.886;8.728;2023-12-20T12:42:43;5.50;;;1.13;;
2866;SDS011;1441;48.886;8.728;2023-12-20T12:45:09;1.43;;;0.90;;
2866;SDS011;1441;48.886;8.728;2023-12-20T12:47:39;3.13;;;1.40;;
2866;SDS011;1441;48.886;8.728;2023-12-20T12:50:05;2.07;;;0.97;;
2866;SDS011;1441;48.886;8.728;2023-12-20T12:52:31;2.50;;;0.90;;
2866;SDS011;1441;48.886;8.728;2023-12-20T12:54:56;4.93;;;1.53;;
2866;SDS011;1441;48.886;8.728;2023-12-20T12:57:22;2.93;;;1.30;;
2866;SDS011;1441;48.886;8.728;2023-12-20T12:59:48;2.10;;;1.10;;
2866;SDS011;1441;48.886;8.728;2023-12-20T13:02:14;6.03;;;1.00;;
2866;SDS011;1441;48.886;8.728;2023-12-20T13:04:40;6.53;;;1.30;;
2866;SDS011;1441;48.886;8.728;2023-12-20T13:07:06;1.23;;;1.10;;
2866;SDS011;1441;48.886;8.728;2023-12-20T13:09:32;4.83;;;1.03;;
2866;SDS011;1441;48.886;8.728;2023-12-20T13:11:58;5.40;;;1.13;;
2866;SDS011;1441;48.886;8.728;2023-12-20T13:14:24;8.80;;;1.20;;
2866;SDS011;1441;48.886;8.728;2023-12-20T13:16:50;5.47;;;1.37;;
2866;SDS011;1441;48.886;8.728;2023-12-20T13:19:15;6.13;;;0.90;;
2866;SDS011;1441;48.886;8.728;2023-12-20T13:21:41;3.47;;;1.20;;
2866;SDS011;1441;48.886;8.728;2023-12-20T13:24:06;3.70;;;1.30;;
2866;SDS011;1441;48.886;8.728;2023-12-20T13:26:32;3.43;;;0.90;;
2866;SDS011;1441;48.886;8.728;2023-12-20T13:28:58;5.50;;;1.57;;
2866;SDS011;1441;48.886;8.728;2023-12-20T13:31:23;3.40;;;1.53;;
2866;SDS011;1441;48.886;8.728;2023-12-20T13:33:49;4.90;;;1.30;;
2866;SDS011;1441;48.886;8.728;2023-12-20T13:36:14;5.93;;;1.70;;
2866;SDS011;1441;48.886;8.728;2023-12-20T13:38:40;4.27;;;1.37;;
2866;SDS011;1441;48.886;8.728;2023-12-20T13:41:05;5.33;;;1.10;;
2866;SDS011;1441;48.886;8.728;2023-12-20T13:43:31;4.13;;;1.30;;
2866;SDS011;1441;48.886;8.728;2023-12-20T13:45:58;5.93;;;1.37;;
2866;SDS011;1441;48.886;8.728;2023-12-20T13:48:24;2.90;;;1.17;;
2866;SDS011;1441;48.886;8.728;2023-12-20T13:50:49;3.30;;;1.10;;
2866;SDS011;1441;48.886;8.728;2023-12-20T13:53:15;9.00;;;1.50;;
2866;SDS011;1441;48.886;8.728;2023-12-20T13:55:41;5.70;;;1.30;;
2866;SDS011;1441;48.886;8.728;2023-12-20T13:58:06;2.10;;;1.47;;
2866;SDS011;1441;48.886;8.728;2023-12-20T14:00:32;6.23;;;1.20;;
2866;SDS011;1441;48.886;8.728;2023-12-20T14:02:57;4.80;;;1.67;;
2866;SDS011;1441;48.886;8.728;2023-12-20T14:05:23;3.93;;;1.93;;
2866;SDS011;1441;48.886;8.728;2023-12-20T14:07:49;3.03;;;1.40;;
2866;SDS011;1441;48.886;8.728;2023-12-20T14:10:15;4.67;;;1.50;;
2866;SDS011;1441;48.886;8.728;2023-12-20T14:12:40;1.80;;;1.00;;
2866;SDS011;1441;48.886;8.728;2023-12-20T14:15:06;6.23;;;1.10;;
2866;SDS011;1441;48.886;8.728;2023-12-20T14:17:39;3.80;;;1.17;;
2866;SDS011;1441;48.886;8.728;2023-12-20T14:20:06;14.03;;;2.10;;
2866;SDS011;1441;48.886;8.728;2023-12-20T14:22:33;4.70;;;1.30;;
2866;SDS011;1441;48.886;8.728;2023-12-20T14:24:58;4.17;;;1.60;;
2866;SDS011;1441;48.886;8.728;2023-12-20T14:27:24;3.00;;;1.27;;
2866;SDS011;1441;48.886;8.728;2023-12-20T14:29:52;9.53;;;1.40;;
2866;SDS011;1441;48.886;8.728;2023-12-20T14:32:18;11.47;;;2.17;;
2866;SDS011;1441;48.886;8.728;2023-12-20T14:34:44;2.40;;;1.37;;
2866;SDS011;1441;48.886;8.728;2023-12-20T14:37:09;5.03;;;1.50;;
2866;SDS011;1441;48.886;8.728;2023-12-20T14:39:35;5.97;;;1.67;;
2866;SDS011;1441;48.886;8.728;2023-12-20T14:42:06;4.83;;;1.30;;
2866;SDS011;1441;48.886;8.728;2023-12-20T14:44:38;4.43;;;1.30;;
2866;SDS011;1441;48.886;8.728;2023-12-20T14:47:04;6.07;;;1.30;;
2866;SDS011;1441;48.886;8.728;2023-12-20T14:49:30;4.43;;;1.40;;
2866;SDS011;1441;48.886;8.728;2023-12-20T14:51:55;6.83;;;1.30;;
2866;SDS011;1441;48.886;8.728;2023-12-20T14:54:21;5.60;;;1.17;;
2866;SDS011;1441;48.886;8.728;2023-12-20T14:56:47;5.50;;;1.30;;
2866;SDS011;1441;48.886;8.728;2023-12-20T14:59:13;9.00;;;1.40;;
2866;SDS011;1441;48.886;8.728;2023-12-20T15:01:38;2.53;;;1.03;;
2866;SDS011;1441;48.886;8.728;2023-12-20T15:04:08;5.77;;;1.10;;
2866;SDS011;1441;48.886;8.728;2023-12-20T15:06:34;6.50;;;1.30;;
2866;SDS011;1441;48.886;8.728;2023-12-20T15:09:00;4.70;;;1.70;;
2866;SDS011;1441;48.886;8.728;2023-12-20T15:11:27;4.10;;;1.30;;
2866;SDS011;1441;48.886;8.728;2023-12-20T15:13:53;3.63;;;1.40;;